Time;durP1;ratioP1;P1;durP2;ratioP2;P2;SDS_P1;SDS_P2;PMS_P1;PMS_P2;Temp;Humidity;BMP_temperature;BMP_pressure;BME280_temperature;BME280_humidity;BME280_pressure;Samples;Min_cycle;Max_cycle;Signal;HPM_P1;HPM_P2
2023/11/25 00:01:05;;;;;;;6.45;1.88;;;0.60;99.90;;;;;;5098939;28;20039;-62
2023/11/25 00:03:31;;;;;;;13.63;2.05;;;0.50;99.90;;;;;;5096151;28;20426;-62
2023/11/25 00:05:56;;;;;;;9.15;2.47;;;0.50;99.90;;;;;;5097192;28;20704;-58
2023/11/25 00:08:22;;;;;;;14.38;2.35;;;0.50;99.90;;;;;;5090591;28;20039;-63
2023/11/25 00:10:48;;;;;;;5.78;1.88;;;0.40;99.90;;;;;;5096165;28;20031;-63
2023/11/25 00:13:16;;;;;;;12.48;2.08;;;0.40;99.90;;;;;;5090629;28;20032;-63
2023/11/25 00:15:42;;;;;;;15.90;1.85;;;0.40;99.90;;;;;;5088859;28;20040;-61
2023/11/25 00:18:07;;;;;;;14.38;2.67;;;0.40;99.90;;;;;;5081811;28;20051;-64
2023/11/25 00:20:36;;;;;;;12.77;2.30;;;0.40;99.90;;;;;;5086136;28;20055;-59
2023/11/25 00:23:02;;;;;;;9.32;2.50;;;0.50;99.90;;;;;;5076214;28;20048;-63
2023/11/25 00:25:28;;;;;;;13.18;2.30;;;0.40;99.90;;;;;;5086016;28;20036;-62
2023/11/25 00:27:54;;;;;;;8.95;2.40;;;0.50;99.90;;;;;;5080398;28;20040;-62
2023/11/25 00:30:20;;;;;;;13.55;2.53;;;0.50;99.90;;;;;;5078942;28;20043;-61
2023/11/25 00:32:46;;;;;;;12.93;2.30;;;0.50;99.90;;;;;;5074474;28;20032;-64
2023/11/25 00:35:12;;;;;;;12.50;2.95;;;0.60;99.90;;;;;;5072556;28;20464;-59
2023/11/25 00:37:41;;;;;;;11.75;2.08;;;0.60;99.90;;;;;;5069849;28;20124;-64
2023/11/25 00:40:10;;;;;;;11.20;2.67;;;0.60;99.90;;;;;;5073510;28;20032;-62
2023/11/25 00:42:41;;;;;;;12.38;1.92;;;0.60;99.90;;;;;;5070816;28;20045;-62
2023/11/25 00:45:11;;;;;;;12.55;2.90;;;0.70;99.90;;;;;;5077936;28;20047;-64
2023/11/25 00:47:40;;;;;;;12.80;2.10;;;0.70;99.90;;;;;;5067724;28;20392;-63
2023/11/25 00:50:07;;;;;;;13.05;2.28;;;0.60;99.90;;;;;;5075644;28;20046;-64
2023/11/25 00:52:33;;;;;;;10.90;2.45;;;0.60;99.90;;;;;;5069032;28;20513;-63
2023/11/25 00:54:59;;;;;;;10.73;2.28;;;0.60;99.90;;;;;;5071239;28;20040;-61
2023/11/25 00:57:26;;;;;;;10.82;1.92;;;0.60;99.90;;;;;;5072977;28;20791;-61
2023/11/25 00:59:54;;;;;;;9.98;2.50;;;0.50;99.90;;;;;;5073820;28;20840;-61
2023/11/25 01:02:20;;;;;;;9.73;1.88;;;0.50;99.90;;;;;;5075223;28;20044;-59
2023/11/25 01:04:46;;;;;;;11.45;2.30;;;0.50;99.90;;;;;;5073022;28;20041;-61
2023/11/25 01:07:11;;;;;;;12.15;2.30;;;0.50;99.90;;;;;;5072640;28;20036;-61
2023/11/25 01:09:37;;;;;;;11.93;2.92;;;0.50;99.90;;;;;;5071477;28;20042;-62
2023/11/25 01:12:03;;;;;;;10.88;2.35;;;0.50;99.90;;;;;;5075764;28;20042;-62
2023/11/25 01:14:31;;;;;;;12.10;2.33;;;0.50;99.90;;;;;;5070753;28;20467;-60
2023/11/25 01:16:57;;;;;;;9.50;2.33;;;0.50;99.90;;;;;;5076237;28;20052;-62
2023/11/25 01:19:23;;;;;;;9.05;2.13;;;0.50;99.90;;;;;;5043663;28;20560;-64
2023/11/25 01:21:48;;;;;;;10.90;1.67;;;0.50;99.90;;;;;;5078202;28;20083;-63
2023/11/25 01:24:14;;;;;;;5.45;1.60;;;0.60;99.90;;;;;;5056201;28;20040;-63
2023/11/25 01:26:40;;;;;;;12.93;2.35;;;0.60;99.90;;;;;;5070199;28;20044;-65
2023/11/25 01:29:06;;;;;;;7.63;2.13;;;0.50;99.90;;;;;;5073134;28;20047;-61
2023/11/25 01:31:32;;;;;;;12.45;2.30;;;0.50;99.90;;;;;;5073665;28;20041;-63
2023/11/25 01:33:58;;;;;;;9.82;1.88;;;0.50;99.90;;;;;;5086636;28;20036;-62
2023/11/25 01:36:25;;;;;;;14.38;2.00;;;0.50;99.90;;;;;;5058302;28;20530;-59
2023/11/25 01:38:50;;;;;;;11.27;1.85;;;0.50;99.90;;;;;;5075175;28;20044;-61
2023/11/25 01:41:17;;;;;;;13.73;3.03;;;0.60;99.90;;;;;;5077090;28;20105;-61
2023/11/25 01:43:42;;;;;;;11.07;2.13;;;0.60;99.90;;;;;;5081816;28;20558;-62
2023/11/25 01:46:08;;;;;;;10.23;1.88;;;0.70;99.90;;;;;;5076524;28;20040;-62
2023/11/25 01:48:35;;;;;;;12.02;2.03;;;0.70;99.90;;;;;;5070849;28;20041;-60
2023/11/25 01:51:02;;;;;;;12.35;2.05;;;0.70;99.90;;;;;;5076936;28;20760;-63
2023/11/25 01:53:28;;;;;;;5.22;1.63;;;0.70;99.90;;;;;;5073285;28;20076;-63
2023/11/25 01:55:55;;;;;;;8.25;1.77;;;0.70;99.90;;;;;;5078487;28;20467;-63
2023/11/25 01:58:21;;;;;;;10.90;1.63;;;0.70;99.90;;;;;;5077099;28;20075;-63
2023/11/25 02:00:49;;;;;;;9.60;2.08;;;0.70;99.90;;;;;;5062789;28;20068;-62
2023/11/25 02:03:16;;;;;;;7.35;1.70;;;0.70;99.90;;;;;;5077227;28;20044;-64
2023/11/25 02:05:45;;;;;;;5.88;1.30;;;0.70;99.90;;;;;;5076919;28;20454;-64
2023/11/25 02:08:11;;;;;;;6.63;1.83;;;0.80;99.90;;;;;;5070612;28;20031;-63
2023/11/25 02:10:39;;;;;;;8.45;1.95;;;0.80;99.90;;;;;;5073114;28;20072;-62
2023/11/25 02:13:08;;;;;;;10.18;2.17;;;0.80;99.90;;;;;;5077984;28;20055;-60
2023/11/25 02:15:35;;;;;;;9.68;2.80;;;0.80;99.90;;;;;;5080614;28;20040;-60
2023/11/25 02:18:00;;;;;;;15.55;4.85;;;0.80;99.90;;;;;;5076332;28;20434;-61
2023/11/25 02:20:37;;;;;;;12.13;3.85;;;0.70;99.90;;;;;;5082440;28;20039;-58
2023/11/25 02:23:19;;;;;;;7.50;3.00;;;0.80;99.90;;;;;;5068570;28;20161;-61
2023/11/25 02:25:47;;;;;;;8.35;3.97;;;0.70;99.90;;;;;;5069917;28;20590;-61
2023/11/25 02:28:19;;;;;;;12.95;4.30;;;0.70;99.90;;;;;;5076522;28;20411;-63
2023/11/25 02:30:46;;;;;;;9.88;3.13;;;0.70;99.90;;;;;;5068621;28;20036;-63
2023/11/25 02:33:14;;;;;;;10.25;3.40;;;0.80;99.90;;;;;;5072243;28;20031;-64
2023/11/25 02:35:44;;;;;;;14.18;3.67;;;0.80;99.90;;;;;;5080957;28;20063;-63
2023/11/25 02:38:14;;;;;;;17.05;4.20;;;0.80;99.90;;;;;;5076282;28;20028;-62
2023/11/25 02:40:43;;;;;;;9.98;3.15;;;0.80;99.90;;;;;;5083270;28;20045;-63
2023/11/25 02:43:11;;;;;;;10.98;3.13;;;0.90;99.90;;;;;;5075201;28;20089;-63
2023/11/25 02:45:37;;;;;;;13.75;3.78;;;0.80;99.90;;;;;;5080620;28;20380;-63
2023/11/25 02:48:04;;;;;;;8.93;3.10;;;0.80;99.90;;;;;;5077196;28;20043;-63
2023/11/25 02:50:30;;;;;;;14.52;3.83;;;0.90;99.90;;;;;;5083132;28;20067;-64
2023/11/25 02:52:56;;;;;;;15.38;4.57;;;0.90;99.90;;;;;;5081838;28;20043;-62
2023/11/25 02:55:21;;;;;;;9.00;3.05;;;0.90;99.90;;;;;;5078193;28;20047;-64
2023/11/25 02:57:48;;;;;;;10.38;3.63;;;1.00;99.90;;;;;;5074325;28;20111;-62
2023/11/25 03:00:28;;;;;;;8.55;3.53;;;0.90;99.90;;;;;;5081898;28;20675;-62
2023/11/25 03:03:04;;;;;;;10.32;3.75;;;0.80;99.90;;;;;;5068837;28;20389;-62
2023/11/25 03:05:33;;;;;;;13.27;3.60;;;0.90;99.90;;;;;;5074361;28;20067;-62
2023/11/25 03:08:00;;;;;;;11.77;3.60;;;0.90;99.90;;;;;;5070727;28;20046;-63
2023/11/25 03:10:26;;;;;;;7.50;3.20;;;0.90;99.90;;;;;;5075010;28;20048;-63
2023/11/25 03:12:53;;;;;;;20.42;4.63;;;0.90;99.90;;;;;;5075130;28;20406;-60
2023/11/25 03:15:18;;;;;;;10.88;4.47;;;0.90;99.90;;;;;;5086818;28;20034;-60
2023/11/25 03:17:44;;;;;;;17.77;3.50;;;0.90;99.90;;;;;;5076407;28;20032;-63
2023/11/25 03:20:10;;;;;;;14.00;4.57;;;1.00;99.90;;;;;;5084561;28;20036;-61
2023/11/25 03:22:35;;;;;;;6.72;3.45;;;1.00;99.90;;;;;;5075503;28;20041;-63
2023/11/25 03:25:01;;;;;;;10.35;3.30;;;1.00;99.90;;;;;;5077667;28;20036;-63
2023/11/25 03:27:31;;;;;;;7.72;3.33;;;1.00;99.90;;;;;;5076570;28;20056;-62
2023/11/25 03:29:57;;;;;;;10.85;3.63;;;1.00;99.90;;;;;;5078322;28;20066;-56
2023/11/25 03:32:25;;;;;;;8.13;3.15;;;1.00;99.90;;;;;;5065620;28;20702;-60
2023/11/25 03:34:55;;;;;;;10.30;3.50;;;1.00;99.90;;;;;;5083427;28;20054;-63
2023/11/25 03:37:21;;;;;;;7.45;3.60;;;1.00;99.90;;;;;;5076832;28;20049;-58
2023/11/25 03:39:46;;;;;;;7.53;2.97;;;1.00;99.90;;;;;;5082459;28;20036;-61
2023/11/25 03:42:12;;;;;;;9.57;3.03;;;1.00;99.90;;;;;;5083198;28;20044;-63
2023/11/25 03:44:38;;;;;;;13.02;3.38;;;1.00;99.90;;;;;;5080992;28;20040;-62
2023/11/25 03:47:03;;;;;;;12.60;3.33;;;1.00;99.90;;;;;;5079590;28;20052;-60
2023/11/25 03:49:30;;;;;;;10.38;3.38;;;1.00;99.90;;;;;;5081934;28;20047;-58
2023/11/25 03:51:56;;;;;;;16.88;3.63;;;0.90;99.90;;;;;;5077132;28;20111;-63
2023/11/25 03:54:21;;;;;;;10.90;3.50;;;0.90;99.90;;;;;;5082148;28;20131;-62
2023/11/25 03:56:48;;;;;;;8.60;2.80;;;0.90;99.90;;;;;;5079395;28;20105;-61
2023/11/25 03:59:14;;;;;;;10.43;2.92;;;0.90;99.90;;;;;;5088057;28;20040;-61
2023/11/25 04:01:42;;;;;;;8.65;3.63;;;0.90;99.90;;;;;;5081649;28;20043;-62
2023/11/25 04:04:10;;;;;;;7.13;3.53;;;1.00;99.90;;;;;;5084451;28;20040;-63
2023/11/25 04:06:36;;;;;;;9.48;3.13;;;1.00;99.90;;;;;;5082785;28;20059;-63
2023/11/25 04:09:01;;;;;;;7.13;2.40;;;1.00;99.90;;;;;;5084948;28;20039;-62
2023/11/25 04:11:27;;;;;;;6.68;2.35;;;1.00;99.90;;;;;;5085821;28;20119;-63
2023/11/25 04:13:56;;;;;;;6.45;1.90;;;1.00;99.90;;;;;;5086334;28;20431;-62
2023/11/25 04:16:23;;;;;;;15.63;2.65;;;1.00;99.90;;;;;;5075374;28;20055;-64
2023/11/25 04:18:50;;;;;;;6.75;2.22;;;1.00;99.90;;;;;;5080961;28;20044;-64
2023/11/25 04:21:21;;;;;;;10.63;2.35;;;1.00;99.90;;;;;;5081686;28;20063;-63
2023/11/25 04:23:55;;;;;;;12.25;2.70;;;1.00;99.90;;;;;;5071767;28;20043;-61
2023/11/25 04:26:24;;;;;;;15.13;2.88;;;1.00;99.90;;;;;;5081739;28;20170;-62
2023/11/25 04:28:50;;;;;;;10.50;2.35;;;1.00;99.90;;;;;;5079151;28;20362;-63
2023/11/25 04:31:16;;;;;;;6.20;2.17;;;1.00;99.90;;;;;;5087126;28;20504;-63
2023/11/25 04:33:41;;;;;;;11.85;2.38;;;1.00;99.90;;;;;;5079360;28;20428;-63
2023/11/25 04:36:09;;;;;;;7.82;2.47;;;1.00;99.90;;;;;;5070949;28;20046;-61
2023/11/25 04:38:35;;;;;;;9.07;2.67;;;1.00;99.90;;;;;;5076275;28;20272;-61
2023/11/25 04:41:01;;;;;;;10.10;2.63;;;0.90;99.90;;;;;;5082641;28;20397;-57
2023/11/25 04:43:26;;;;;;;12.60;2.33;;;0.90;99.90;;;;;;5077283;28;20714;-60
2023/11/25 04:45:52;;;;;;;12.73;2.42;;;0.90;99.90;;;;;;5084292;28;20037;-57
2023/11/25 04:48:19;;;;;;;9.13;2.80;;;0.90;99.90;;;;;;5072885;28;20037;-59
2023/11/25 04:50:46;;;;;;;20.88;3.15;;;0.90;99.90;;;;;;5086165;28;20044;-63
2023/11/25 04:53:12;;;;;;;17.13;2.80;;;0.90;99.90;;;;;;5079194;28;20076;-62
2023/11/25 04:55:38;;;;;;;10.85;3.00;;;0.90;99.90;;;;;;5081077;28;20032;-63
2023/11/25 04:58:04;;;;;;;17.45;4.57;;;0.90;99.90;;;;;;5082112;28;20032;-62
2023/11/25 05:00:29;;;;;;;22.55;3.17;;;0.80;99.90;;;;;;5083464;28;20472;-58
2023/11/25 05:02:55;;;;;;;13.77;3.05;;;0.80;99.90;;;;;;5074309;28;20510;-55
2023/11/25 05:05:23;;;;;;;16.35;3.25;;;0.80;99.90;;;;;;5073813;28;20048;-57
2023/11/25 05:07:49;;;;;;;16.17;3.45;;;0.80;99.90;;;;;;5075834;28;20051;-59
2023/11/25 05:10:15;;;;;;;22.75;3.60;;;0.80;99.90;;;;;;5086274;28;20040;-61
2023/11/25 05:12:44;;;;;;;19.48;3.47;;;0.80;99.90;;;;;;5078182;28;20044;-59
2023/11/25 05:15:11;;;;;;;14.27;3.28;;;0.70;99.90;;;;;;5069072;28;20041;-60
2023/11/25 05:17:40;;;;;;;14.88;3.67;;;0.80;99.90;;;;;;5075350;28;20063;-63
2023/11/25 05:20:09;;;;;;;28.42;3.65;;;0.80;99.90;;;;;;5086384;28;20048;-63
2023/11/25 05:22:35;;;;;;;15.05;3.20;;;0.70;99.90;;;;;;5082405;28;20036;-61
2023/11/25 05:25:01;;;;;;;20.55;4.03;;;0.70;99.90;;;;;;5072535;28;20052;-62
2023/11/25 05:27:26;;;;;;;19.98;3.33;;;0.70;99.90;;;;;;5076659;28;20085;-64
2023/11/25 05:29:52;;;;;;;12.55;3.38;;;0.70;99.90;;;;;;5077817;28;20056;-60
2023/11/25 05:32:18;;;;;;;18.35;2.45;;;0.70;99.90;;;;;;5075222;28;20055;-60
2023/11/25 05:34:44;;;;;;;16.50;3.35;;;0.70;99.90;;;;;;5077344;28;20064;-58
2023/11/25 05:37:10;;;;;;;20.77;3.22;;;0.70;99.90;;;;;;5064192;28;20043;-61
2023/11/25 05:39:36;;;;;;;14.27;2.85;;;0.80;99.90;;;;;;5082730;28;20045;-58
2023/11/25 05:42:03;;;;;;;14.18;3.15;;;0.70;99.90;;;;;;5081324;28;20546;-62
2023/11/25 05:44:29;;;;;;;12.10;3.10;;;0.80;99.90;;;;;;5079161;28;20132;-60
2023/11/25 05:46:56;;;;;;;22.85;3.33;;;0.80;99.90;;;;;;5080463;28;20064;-61
2023/11/25 05:49:22;;;;;;;11.43;2.85;;;0.90;99.90;;;;;;5086082;28;20056;-61
2023/11/25 05:51:47;;;;;;;24.15;3.55;;;0.90;99.90;;;;;;5079359;28;20101;-58
2023/11/25 05:54:13;;;;;;;21.15;4.28;;;1.00;99.90;;;;;;5077207;28;20454;-59
2023/11/25 05:56:40;;;;;;;20.73;3.55;;;1.00;99.90;;;;;;5072118;28;20052;-61
2023/11/25 05:59:08;;;;;;;24.27;3.95;;;1.00;99.90;;;;;;5087441;28;20052;-61
2023/11/25 06:01:35;;;;;;;21.33;3.47;;;1.00;99.90;;;;;;5044280;28;20427;-62
2023/11/25 06:04:00;;;;;;;15.68;3.65;;;1.10;99.90;;;;;;5074650;28;20040;-58
2023/11/25 06:06:26;;;;;;;16.48;3.95;;;1.10;99.90;;;;;;5083773;28;20373;-53
2023/11/25 06:08:51;;;;;;;22.00;4.25;;;1.10;99.90;;;;;;5084948;28;20625;-58
2023/11/25 06:11:19;;;;;;;30.92;4.55;;;1.10;99.90;;;;;;5086021;28;20043;-62
2023/11/25 06:13:44;;;;;;;16.60;3.55;;;1.10;99.90;;;;;;5079309;28;20549;-63
2023/11/25 06:16:10;;;;;;;18.83;2.97;;;1.20;99.90;;;;;;5078514;28;20040;-62
2023/11/25 06:18:36;;;;;;;24.70;4.70;;;1.20;99.90;;;;;;5076376;28;20066;-60
2023/11/25 06:21:02;;;;;;;12.50;3.70;;;1.30;99.90;;;;;;5084339;28;20109;-63
2023/11/25 06:23:28;;;;;;;19.50;3.72;;;1.30;99.90;;;;;;5073500;28;20048;-62
2023/11/25 06:25:54;;;;;;;23.55;4.63;;;1.30;99.90;;;;;;5076540;28;20053;-62
2023/11/25 06:28:23;;;;;;;21.67;3.95;;;1.30;99.90;;;;;;5081213;28;20089;-58
2023/11/25 06:30:53;;;;;;;24.23;4.05;;;1.30;99.90;;;;;;5076614;28;20637;-63
2023/11/25 06:33:21;;;;;;;26.13;3.58;;;1.40;99.90;;;;;;5080278;28;20048;-59
2023/11/25 06:35:47;;;;;;;15.07;3.35;;;1.30;99.90;;;;;;5079726;28;20147;-61
2023/11/25 06:38:13;;;;;;;21.42;3.45;;;1.30;99.90;;;;;;5083029;28;20055;-62
2023/11/25 06:40:40;;;;;;;28.40;3.88;;;1.30;99.90;;;;;;5078440;28;20110;-63
2023/11/25 06:43:06;;;;;;;25.30;4.45;;;1.30;99.90;;;;;;5073849;28;20138;-62
2023/11/25 06:45:33;;;;;;;30.08;4.45;;;1.40;99.90;;;;;;5081482;28;20503;-62
2023/11/25 06:47:59;;;;;;;19.85;3.92;;;1.40;99.90;;;;;;5075028;28;20048;-58
2023/11/25 06:50:24;;;;;;;22.50;3.80;;;1.40;99.90;;;;;;5082760;28;20257;-61
2023/11/25 06:52:50;;;;;;;18.23;4.05;;;1.40;99.90;;;;;;5071839;28;20037;-55
2023/11/25 06:55:18;;;;;;;21.45;3.70;;;1.40;99.90;;;;;;5074721;28;20048;-62
2023/11/25 06:57:44;;;;;;;14.77;3.38;;;1.40;99.90;;;;;;5066658;28;20114;-61
2023/11/25 07:00:11;;;;;;;21.25;4.20;;;1.50;99.90;;;;;;5060206;28;20049;-61
2023/11/25 07:02:37;;;;;;;16.52;5.40;;;1.50;99.90;;;;;;5064376;28;20040;-63
2023/11/25 07:05:03;;;;;;;19.17;3.97;;;1.50;99.90;;;;;;5070878;28;20032;-62
2023/11/25 07:07:29;;;;;;;19.90;4.47;;;1.50;99.90;;;;;;5067194;28;20044;-62
2023/11/25 07:09:55;;;;;;;21.00;4.15;;;1.50;99.90;;;;;;5066759;28;20052;-62
2023/11/25 07:12:21;;;;;;;26.58;4.32;;;1.60;99.90;;;;;;5069501;28;20033;-64
2023/11/25 07:14:46;;;;;;;20.33;4.43;;;1.50;99.90;;;;;;5067252;28;20106;-63
2023/11/25 07:17:12;;;;;;;21.00;4.18;;;1.60;99.90;;;;;;5070902;28;20037;-64
2023/11/25 07:19:42;;;;;;;26.75;4.07;;;1.60;99.90;;;;;;5068307;28;20063;-56
2023/11/25 07:22:08;;;;;;;14.18;3.50;;;1.60;99.90;;;;;;5062198;28;20036;-58
2023/11/25 07:24:34;;;;;;;25.80;3.65;;;1.60;99.90;;;;;;5062885;28;20048;-58
2023/11/25 07:27:05;;;;;;;22.65;4.18;;;1.60;99.90;;;;;;5069857;28;20051;-58
2023/11/25 07:29:31;;;;;;;18.25;3.63;;;1.60;99.90;;;;;;5068425;28;20453;-59
2023/11/25 07:31:59;;;;;;;21.00;3.78;;;1.60;99.90;;;;;;5071675;28;20082;-60
2023/11/25 07:34:24;;;;;;;24.63;4.38;;;1.60;99.90;;;;;;5077953;28;20127;-62
2023/11/25 07:36:50;;;;;;;17.25;4.22;;;1.60;99.90;;;;;;5062441;28;20179;-62
2023/11/25 07:39:19;;;;;;;16.08;4.00;;;1.60;99.90;;;;;;5078700;28;20079;-61
2023/11/25 07:41:45;;;;;;;25.10;3.58;;;1.60;99.90;;;;;;5078195;28;20045;-62
2023/11/25 07:44:11;;;;;;;22.90;3.30;;;1.60;99.90;;;;;;5072937;28;20036;-64
2023/11/25 07:46:37;;;;;;;16.13;4.50;;;1.70;99.90;;;;;;5068914;28;20041;-63
2023/11/25 07:49:02;;;;;;;19.77;3.25;;;1.70;99.90;;;;;;5071262;28;20119;-62
2023/11/25 07:51:28;;;;;;;7.05;2.75;;;1.70;99.90;;;;;;5074930;28;20040;-61
2023/11/25 07:53:54;;;;;;;19.25;3.40;;;1.70;99.90;;;;;;5077598;28;20056;-62
2023/11/25 07:56:20;;;;;;;16.42;2.90;;;1.80;99.90;;;;;;5079463;28;20040;-61
2023/11/25 07:58:46;;;;;;;14.18;3.03;;;1.90;99.90;;;;;;5077297;28;20040;-61
2023/11/25 08:01:12;;;;;;;20.52;3.70;;;2.00;99.90;;;;;;5081850;28;20676;-63
2023/11/25 08:03:38;;;;;;;11.77;2.97;;;2.00;99.90;;;;;;5086062;28;20048;-62
2023/11/25 08:06:05;;;;;;;23.13;5.70;;;2.10;99.90;;;;;;5064420;22;20514;-65
2023/11/25 08:08:33;;;;;;;15.80;3.88;;;2.10;99.90;;;;;;5053477;28;20390;-62
2023/11/25 08:10:59;;;;;;;22.42;3.30;;;2.10;99.90;;;;;;5032594;28;20045;-64
2023/11/25 08:13:26;;;;;;;10.48;3.20;;;2.00;99.90;;;;;;5060113;28;20041;-62
2023/11/25 08:15:51;;;;;;;13.73;3.03;;;2.00;99.90;;;;;;5054350;28;20080;-62
2023/11/25 08:18:18;;;;;;;9.50;2.38;;;2.10;99.90;;;;;;5030313;28;20183;-63
2023/11/25 08:20:46;;;;;;;11.95;2.45;;;2.30;99.90;;;;;;5059280;28;20094;-63
2023/11/25 08:23:12;;;;;;;6.95;1.75;;;2.40;99.90;;;;;;5050640;28;20041;-64
2023/11/25 08:25:37;;;;;;;10.00;2.17;;;2.60;99.90;;;;;;5053283;28;20052;-62
2023/11/25 08:28:03;;;;;;;9.02;2.42;;;2.60;99.90;;;;;;5058913;28;20053;-61
2023/11/25 08:30:29;;;;;;;9.80;1.80;;;2.50;99.90;;;;;;5030572;28;20060;-64
2023/11/25 08:32:56;;;;;;;11.10;2.13;;;2.40;99.90;;;;;;5048827;28;20121;-63
2023/11/25 08:35:22;;;;;;;12.07;3.28;;;2.30;99.90;;;;;;5048001;28;20052;-63
2023/11/25 08:37:47;;;;;;;14.13;3.47;;;2.20;99.90;;;;;;5051532;28;20044;-56
2023/11/25 08:40:16;;;;;;;12.57;2.88;;;2.30;99.90;;;;;;5061357;28;20060;-56
2023/11/25 08:42:45;;;;;;;15.82;2.35;;;2.20;99.90;;;;;;5053166;28;20032;-62
2023/11/25 08:45:11;;;;;;;12.82;2.20;;;2.20;99.90;;;;;;5055857;28;20036;-58
2023/11/25 08:47:39;;;;;;;9.68;1.85;;;2.20;99.90;;;;;;5049624;28;20037;-60
2023/11/25 08:50:08;;;;;;;14.27;3.67;;;2.20;99.90;;;;;;5032767;28;20049;-62
2023/11/25 08:52:38;;;;;;;10.23;2.30;;;2.20;99.90;;;;;;5055318;28;20106;-61
2023/11/25 08:55:07;;;;;;;12.55;2.38;;;2.20;99.90;;;;;;5064895;28;20062;-61
2023/11/25 08:57:36;;;;;;;12.90;2.42;;;2.20;99.90;;;;;;5047122;28;20045;-61
2023/11/25 09:00:14;;;;;;;8.05;1.73;;;2.30;99.90;;;;;;5054601;28;20069;-63
2023/11/25 09:02:43;;;;;;;12.38;2.28;;;2.30;99.90;;;;;;5054288;28;20191;-63
2023/11/25 09:05:08;;;;;;;16.85;3.20;;;2.30;99.90;;;;;;5054620;28;20138;-66
2023/11/25 09:07:34;;;;;;;10.13;2.22;;;2.30;99.90;;;;;;5061165;28;20144;-62
2023/11/25 09:10:00;;;;;;;12.38;1.77;;;2.30;99.90;;;;;;5058263;28;20049;-61
2023/11/25 09:12:26;;;;;;;10.75;1.30;;;2.30;99.90;;;;;;5061271;28;20052;-58
2023/11/25 09:14:53;;;;;;;7.65;1.48;;;2.20;99.90;;;;;;5060528;28;20045;-58
2023/11/25 09:17:20;;;;;;;11.80;1.40;;;2.20;99.90;;;;;;5050004;28;20676;-62
2023/11/25 09:19:46;;;;;;;6.30;1.38;;;2.20;99.90;;;;;;5064153;28;20040;-61
2023/11/25 09:22:12;;;;;;;6.93;1.20;;;2.20;99.90;;;;;;5058011;28;20500;-63
2023/11/25 09:24:39;;;;;;;5.47;1.17;;;2.30;99.90;;;;;;5056876;28;20036;-62
2023/11/25 09:27:05;;;;;;;6.53;2.28;;;2.30;99.90;;;;;;5052682;28;20052;-63
2023/11/25 09:29:30;;;;;;;3.65;1.23;;;2.30;99.90;;;;;;5051510;28;20036;-61
2023/11/25 09:31:56;;;;;;;3.53;0.90;;;2.30;99.90;;;;;;5058963;28;20415;-60
2023/11/25 09:34:22;;;;;;;2.88;0.82;;;2.30;99.90;;;;;;5064929;28;20052;-62
2023/11/25 09:36:47;;;;;;;3.60;0.90;;;2.30;99.90;;;;;;5053398;28;20455;-61
2023/11/25 09:39:14;;;;;;;6.50;1.30;;;2.30;99.90;;;;;;5060936;28;20451;-61
2023/11/25 09:41:40;;;;;;;5.80;1.50;;;2.20;99.90;;;;;;5055894;28;20052;-61
2023/11/25 09:44:08;;;;;;;3.08;1.13;;;2.30;99.90;;;;;;5051811;28;20036;-63
2023/11/25 09:46:34;;;;;;;5.20;1.77;;;2.30;99.90;;;;;;5056150;28;20045;-61
2023/11/25 09:49:04;;;;;;;5.38;1.25;;;2.30;99.90;;;;;;5056591;28;20132;-62
2023/11/25 09:51:32;;;;;;;5.13;1.30;;;2.30;99.90;;;;;;5053555;28;20060;-63
2023/11/25 09:54:04;;;;;;;4.75;1.58;;;2.30;99.90;;;;;;5048440;28;20045;-63
2023/11/25 09:56:30;;;;;;;3.53;1.40;;;2.20;99.90;;;;;;5047002;28;20071;-61
2023/11/25 09:58:56;;;;;;;2.38;1.10;;;2.20;99.90;;;;;;5046410;28;20447;-61
2023/11/25 10:01:22;;;;;;;4.05;1.20;;;2.30;99.90;;;;;;5049612;28;20102;-59
2023/11/25 10:03:51;;;;;;;3.17;1.40;;;2.30;99.90;;;;;;5053710;28;20041;-56
2023/11/25 10:06:18;;;;;;;2.72;1.30;;;2.30;99.90;;;;;;5054305;28;20099;-63
2023/11/25 10:08:44;;;;;;;2.80;1.15;;;2.30;99.90;;;;;;5054647;28;20078;-62
2023/11/25 10:11:14;;;;;;;3.70;1.30;;;2.20;99.90;;;;;;5057333;28;20041;-61
2023/11/25 10:13:42;;;;;;;7.15;1.55;;;2.20;99.90;;;;;;5057128;28;20060;-62
2023/11/25 10:16:09;;;;;;;5.05;1.60;;;2.20;99.90;;;;;;5056161;28;20040;-58
2023/11/25 10:18:38;;;;;;;2.75;1.50;;;2.30;99.90;;;;;;5051368;28;20048;-62
2023/11/25 10:21:06;;;;;;;3.33;1.10;;;2.30;99.90;;;;;;5057693;28;20040;-60
2023/11/25 10:23:33;;;;;;;1.30;1.00;;;2.20;99.90;;;;;;5058332;28;20036;-63
2023/11/25 10:26:03;;;;;;;5.47;1.77;;;2.20;99.90;;;;;;5058415;28;20044;-62
2023/11/25 10:28:33;;;;;;;2.45;1.10;;;2.20;99.90;;;;;;5049641;28;20159;-57
2023/11/25 10:31:08;;;;;;;4.53;1.55;;;2.10;99.90;;;;;;5062554;28;20122;-60
2023/11/25 10:33:34;;;;;;;3.10;1.20;;;2.20;99.90;;;;;;5056823;28;20086;-63
2023/11/25 10:36:00;;;;;;;3.17;1.52;;;2.20;99.90;;;;;;5055273;28;20520;-62
2023/11/25 10:38:29;;;;;;;1.75;1.10;;;2.20;99.90;;;;;;5059863;28;20090;-63
2023/11/25 10:41:03;;;;;;;2.15;1.02;;;2.20;99.90;;;;;;5055820;28;20044;-62
2023/11/25 10:43:30;;;;;;;2.00;1.10;;;2.30;99.90;;;;;;5052427;28;20086;-58
2023/11/25 10:46:07;;;;;;;1.58;1.08;;;2.30;99.90;;;;;;5059167;28;20040;-58
2023/11/25 10:48:38;;;;;;;1.65;1.10;;;2.30;99.90;;;;;;5049802;28;20086;-62
2023/11/25 10:51:05;;;;;;;1.80;1.05;;;2.40;99.90;;;;;;5025231;28;20052;-61
2023/11/25 10:53:32;;;;;;;2.17;0.98;;;2.40;99.90;;;;;;5054309;28;20813;-59
2023/11/25 10:56:01;;;;;;;1.65;1.10;;;2.40;99.90;;;;;;5060127;28;20071;-60
2023/11/25 10:58:29;;;;;;;1.48;1.02;;;2.40;99.90;;;;;;5054481;28;20132;-62
2023/11/25 11:00:55;;;;;;;2.33;1.40;;;2.50;99.90;;;;;;5059525;28;20138;-63
2023/11/25 11:03:29;;;;;;;1.77;1.25;;;2.40;99.90;;;;;;5049682;28;20064;-60
2023/11/25 11:05:55;;;;;;;1.90;1.20;;;2.30;99.90;;;;;;5054509;28;21283;-62
2023/11/25 11:08:32;;;;;;;5.25;1.90;;;2.30;99.90;;;;;;5047374;28;20056;-61
2023/11/25 11:11:35;;;;;;;4.20;1.55;;;2.30;99.90;;;;;;5055000;28;20037;-62
2023/11/25 11:14:10;;;;;;;7.53;2.00;;;2.30;99.90;;;;;;5030708;28;20053;-61
2023/11/25 11:16:39;;;;;;;4.57;1.85;;;2.30;99.90;;;;;;5024513;28;20159;-63
2023/11/25 11:19:09;;;;;;;5.40;2.67;;;2.30;99.90;;;;;;5054869;28;20527;-63
2023/11/25 11:21:37;;;;;;;3.90;1.70;;;2.30;99.90;;;;;;5057747;28;20086;-63
2023/11/25 11:24:06;;;;;;;3.75;1.73;;;2.40;99.90;;;;;;5058234;28;20041;-63
2023/11/25 11:26:48;;;;;;;2.65;1.70;;;2.30;99.90;;;;;;5053314;28;20173;-63
2023/11/25 11:29:28;;;;;;;3.22;1.40;;;2.30;99.90;;;;;;5055885;28;20419;-60
2023/11/25 11:31:59;;;;;;;3.25;1.45;;;2.30;99.90;;;;;;5050942;28;20132;-61
2023/11/25 11:34:36;;;;;;;1.88;1.45;;;2.30;99.90;;;;;;5059034;28;20036;-62
2023/11/25 11:37:03;;;;;;;2.45;1.52;;;2.40;99.90;;;;;;5052949;28;20045;-62
2023/11/25 11:39:32;;;;;;;3.08;1.75;;;2.30;99.90;;;;;;5065006;28;20075;-57
2023/11/25 11:42:22;;;;;;;6.45;1.88;;;2.30;99.90;;;;;;5052071;28;20111;-60
2023/11/25 11:45:11;;;;;;;2.83;1.55;;;2.40;99.90;;;;;;5056154;28;20041;-61
2023/11/25 11:47:44;;;;;;;3.97;1.90;;;2.30;99.90;;;;;;5031974;28;20037;-63
2023/11/25 11:50:14;;;;;;;4.00;1.98;;;2.30;99.90;;;;;;5059766;28;20041;-61
2023/11/25 11:52:48;;;;;;;4.43;2.10;;;2.30;99.90;;;;;;5054556;28;20120;-63
2023/11/25 11:55:39;;;;;;;4.65;2.55;;;2.40;99.90;;;;;;5052546;28;20079;-64
2023/11/25 11:58:05;;;;;;;2.85;1.63;;;2.50;99.90;;;;;;5054733;28;20562;-62
2023/11/25 12:00:39;;;;;;;4.45;1.70;;;2.50;99.90;;;;;;5057022;28;20044;-61
2023/11/25 12:03:05;;;;;;;4.15;1.67;;;2.40;99.90;;;;;;5061061;28;20076;-61
2023/11/25 12:05:31;;;;;;;3.15;1.75;;;2.50;99.90;;;;;;5058810;28;20690;-62
2023/11/25 12:07:57;;;;;;;4.30;1.80;;;2.40;99.90;;;;;;5058754;28;20037;-62
2023/11/25 12:10:23;;;;;;;4.95;2.13;;;2.50;99.90;;;;;;5057036;28;20128;-61
2023/11/25 12:12:49;;;;;;;8.30;2.60;;;2.50;99.90;;;;;;5057923;28;20123;-63
2023/11/25 12:15:16;;;;;;;8.35;2.25;;;2.50;99.90;;;;;;5061449;28;22465;-62
2023/11/25 12:17:43;;;;;;;7.18;2.40;;;2.50;99.90;;;;;;5054944;28;20037;-61
2023/11/25 12:20:10;;;;;;;5.90;1.75;;;2.60;99.90;;;;;;5060423;28;20068;-56
2023/11/25 12:22:36;;;;;;;7.00;1.98;;;2.70;99.90;;;;;;5055880;28;20049;-61
2023/11/25 12:25:03;;;;;;;7.18;2.42;;;2.70;99.90;;;;;;5040083;28;20163;-58
2023/11/25 12:27:31;;;;;;;4.20;1.83;;;2.70;99.90;;;;;;5060299;28;20094;-59
2023/11/25 12:29:56;;;;;;;5.50;1.90;;;2.70;99.90;;;;;;5064210;28;20051;-60
2023/11/25 12:32:23;;;;;;;7.80;2.30;;;2.60;99.90;;;;;;5058926;28;20048;-61
2023/11/25 12:34:49;;;;;;;8.48;2.17;;;2.60;99.90;;;;;;5064195;28;20033;-59
2023/11/25 12:37:15;;;;;;;4.32;2.40;;;2.60;99.90;;;;;;5053116;28;20067;-59
2023/11/25 12:39:42;;;;;;;4.07;2.20;;;2.50;99.90;;;;;;5063063;28;20079;-58
2023/11/25 12:42:08;;;;;;;10.88;2.33;;;2.50;99.90;;;;;;5058706;28;20082;-58
2023/11/25 12:45:01;;;;;;;7.53;2.33;;;2.60;99.90;;;;;;5057980;28;20071;-60
2023/11/25 12:47:28;;;;;;;2.63;1.80;;;2.60;99.90;;;;;;5054505;28;20204;-54
2023/11/25 12:50:04;;;;;;;5.15;2.60;;;2.60;99.90;;;;;;5063527;28;20072;-59
2023/11/25 12:52:30;;;;;;;5.45;2.50;;;2.50;99.90;;;;;;5056513;28;20044;-60